Time;durP1;ratioP1;P1;durP2;ratioP2;P2;SDS_P1;SDS_P2;PMS_P1;PMS_P2;Temp;Humidity;BMP_temperature;BMP_pressure;BME280_temperature;BME280_humidity;BME280_pressure;Samples;Min_cycle;Max_cycle;Signal;HPM_P1;HPM_P2
2023/10/30 00:01:45;;;;;;;6.15;3.63;;;8.10;99.90;;;;;;5155533;28;20155;-66
2023/10/30 00:04:16;;;;;;;6.80;3.95;;;8.20;99.90;;;;;;5141226;28;20048;-65
2023/10/30 00:06:50;;;;;;;7.45;4.53;;;8.30;99.90;;;;;;5163724;28;20406;-64
2023/10/30 00:09:23;;;;;;;5.70;3.88;;;8.40;99.90;;;;;;5162958;28;20030;-66
2023/10/30 00:11:57;;;;;;;6.15;3.30;;;8.50;99.90;;;;;;5164348;28;20042;-64
2023/10/30 00:14:28;;;;;;;8.60;5.22;;;8.50;99.90;;;;;;5165156;28;20044;-63
2023/10/30 00:17:02;;;;;;;6.05;3.38;;;8.40;99.90;;;;;;5182216;28;20041;-65
2023/10/30 00:19:33;;;;;;;5.15;3.45;;;8.40;99.90;;;;;;5165321;28;20203;-66
2023/10/30 00:22:11;;;;;;;5.35;2.92;;;8.40;99.90;;;;;;5148633;28;20101;-64
2023/10/30 00:24:42;;;;;;;3.60;2.88;;;8.30;99.90;;;;;;5164372;28;20531;-63
2023/10/30 00:27:18;;;;;;;4.90;3.17;;;8.20;99.90;;;;;;5164701;28;20026;-64
2023/10/30 00:29:49;;;;;;;5.07;3.47;;;8.20;99.90;;;;;;5144564;28;20026;-63
2023/10/30 00:32:20;;;;;;;8.90;3.95;;;8.30;99.90;;;;;;5161190;28;20030;-65
2023/10/30 00:34:54;;;;;;;5.90;3.85;;;8.30;99.90;;;;;;5161695;28;20029;-65
2023/10/30 00:37:28;;;;;;;6.57;4.47;;;8.40;99.90;;;;;;5143989;28;20044;-64
2023/10/30 00:40:01;;;;;;;6.93;3.80;;;8.40;99.90;;;;;;5144333;28;20030;-65
2023/10/30 00:42:35;;;;;;;6.20;4.23;;;8.40;99.90;;;;;;5129336;28;20042;-61
2023/10/30 00:45:07;;;;;;;6.18;4.13;;;8.50;99.90;;;;;;5143265;28;20258;-65
2023/10/30 00:47:53;;;;;;;3.78;2.92;;;8.50;99.90;;;;;;5112108;28;20030;-64
2023/10/30 00:50:32;;;;;;;3.95;2.75;;;8.50;99.90;;;;;;5144090;28;20042;-65
2023/10/30 00:53:07;;;;;;;4.13;2.85;;;8.40;99.90;;;;;;5161896;28;20026;-65
2023/10/30 00:55:46;;;;;;;6.32;3.20;;;8.30;99.90;;;;;;5127901;28;20040;-65
2023/10/30 00:58:21;;;;;;;5.07;2.58;;;8.30;99.90;;;;;;5126963;28;20064;-63
2023/10/30 01:03:26;;;;;;;3.30;2.92;;;8.10;99.90;;;;;;5178189;28;20226;-69
2023/10/30 01:06:01;;;;;;;4.07;2.65;;;8.00;99.90;;;;;;5194845;28;20203;-69
2023/10/30 01:08:34;;;;;;;3.17;2.30;;;8.00;99.90;;;;;;5160681;28;20306;-67
2023/10/30 01:11:05;;;;;;;4.38;3.15;;;7.90;99.90;;;;;;5196190;28;20036;-67
2023/10/30 01:13:36;;;;;;;3.50;2.70;;;7.90;99.90;;;;;;5179906;28;20025;-68
2023/10/30 01:16:08;;;;;;;4.03;2.47;;;7.90;99.90;;;;;;5176271;28;20101;-66
2023/10/30 01:18:39;;;;;;;6.15;3.30;;;7.80;99.90;;;;;;5180743;28;20263;-67
2023/10/30 01:21:11;;;;;;;3.75;2.70;;;7.80;99.90;;;;;;5178375;28;20041;-65
2023/10/30 01:23:43;;;;;;;4.55;2.80;;;7.80;99.90;;;;;;5161704;28;20034;-68
2023/10/30 01:26:14;;;;;;;3.03;2.70;;;7.80;99.90;;;;;;5180384;28;20034;-68
2023/10/30 01:28:49;;;;;;;5.90;3.22;;;7.90;99.90;;;;;;5177592;28;20022;-66
2023/10/30 01:31:21;;;;;;;;;;;8.00;99.90;;;;;;5159316;28;20041;-66
2023/10/30 01:33:55;;;;;;;3.55;2.50;;;8.10;99.90;;;;;;5179370;28;20161;-69
2023/10/30 01:36:32;;;;;;;3.63;2.53;;;8.10;99.90;;;;;;5161905;28;20287;-67
2023/10/30 01:39:03;;;;;;;5.32;3.58;;;8.10;99.90;;;;;;5178109;28;20036;-67
2023/10/30 01:41:42;;;;;;;3.08;2.63;;;8.00;99.90;;;;;;5177917;28;20042;-67
2023/10/30 01:44:13;;;;;;;5.07;3.17;;;8.00;99.90;;;;;;5161075;28;20318;-66
2023/10/30 01:46:46;;;;;;;3.03;2.72;;;8.00;99.90;;;;;;5176299;28;20077;-67
2023/10/30 01:49:17;;;;;;;4.80;3.30;;;8.00;99.90;;;;;;5178609;28;20078;-68
2023/10/30 01:51:48;;;;;;;5.45;2.92;;;8.00;99.90;;;;;;5179962;28;20161;-68
2023/10/30 01:54:19;;;;;;;3.20;2.90;;;7.90;99.90;;;;;;5193814;28;20128;-66
2023/10/30 01:56:51;;;;;;;3.28;2.90;;;7.80;99.90;;;;;;5176938;28;20078;-69
2023/10/30 01:59:24;;;;;;;3.13;2.83;;;7.80;99.90;;;;;;5179002;28;20047;-67
2023/10/30 02:01:56;;;;;;;3.67;2.60;;;7.80;99.90;;;;;;5176031;28;20253;-69
2023/10/30 02:04:30;;;;;;;3.03;2.67;;;7.80;99.90;;;;;;5160711;28;20349;-68
2023/10/30 02:07:03;;;;;;;;;;;7.70;99.90;;;;;;5179873;28;20078;-66
2023/10/30 02:09:37;;;;;;;3.75;2.58;;;7.70;99.90;;;;;;5178796;28;19963;-68
2023/10/30 02:12:08;;;;;;;5.93;3.35;;;7.70;99.90;;;;;;5177801;28;20038;-66
2023/10/30 02:14:40;;;;;;;4.45;3.20;;;7.70;99.90;;;;;;5161511;28;20041;-66
2023/10/30 02:17:16;;;;;;;3.15;2.30;;;7.90;99.90;;;;;;5175568;28;20033;-68
2023/10/30 02:19:54;;;;;;;5.00;2.97;;;7.90;99.90;;;;;;5178640;28;20040;-67
2023/10/30 02:22:28;;;;;;;4.05;3.42;;;7.80;99.90;;;;;;5177630;28;20032;-67
2023/10/30 02:24:59;;;;;;;6.22;2.80;;;7.80;99.90;;;;;;5145075;28;20045;-67
2023/10/30 02:27:31;;;;;;;4.95;3.20;;;7.80;99.90;;;;;;5159625;28;20041;-69
2023/10/30 02:30:04;;;;;;;4.57;2.85;;;7.80;99.90;;;;;;5159182;28;20062;-66
2023/10/30 02:32:42;;;;;;;3.25;2.65;;;7.80;99.90;;;;;;5160421;28;20053;-69
2023/10/30 02:35:19;;;;;;;5.18;2.70;;;7.70;99.90;;;;;;5178289;28;20036;-67
2023/10/30 02:37:52;;;;;;;3.15;2.60;;;7.60;99.90;;;;;;5176654;28;20140;-70
2023/10/30 02:40:24;;;;;;;4.50;2.50;;;7.60;99.90;;;;;;5159435;28;20044;-71
2023/10/30 02:42:55;;;;;;;4.22;2.63;;;7.60;99.90;;;;;;5176494;28;20280;-68
2023/10/30 02:45:29;;;;;;;6.65;2.60;;;7.60;99.90;;;;;;5174753;28;20029;-69
2023/10/30 02:48:00;;;;;;;3.97;2.70;;;7.50;99.90;;;;;;5159720;28;20033;-67
2023/10/30 02:50:34;;;;;;;3.47;2.38;;;7.60;99.90;;;;;;5162402;28;20041;-71
2023/10/30 02:53:28;;;;;;;3.25;2.75;;;7.60;99.90;;;;;;5169334;28;20046;-67
2023/10/30 02:56:02;;;;;;;3.00;2.57;;;7.60;99.90;;;;;;5144633;28;20041;-67
2023/10/30 02:58:34;;;;;;;3.67;2.63;;;7.50;99.90;;;;;;5138234;28;20461;-68
2023/10/30 03:01:10;;;;;;;3.08;2.70;;;7.50;99.90;;;;;;5150406;28;20034;-67
2023/10/30 03:03:44;;;;;;;3.38;2.78;;;7.50;99.90;;;;;;5159614;28;20034;-67
2023/10/30 03:06:18;;;;;;;2.70;2.47;;;7.50;99.90;;;;;;5158581;28;20037;-67
2023/10/30 03:08:54;;;;;;;3.35;2.53;;;7.50;99.90;;;;;;5160090;28;20061;-69
2023/10/30 03:11:28;;;;;;;4.35;2.15;;;7.50;99.90;;;;;;5177560;28;20439;-68
2023/10/30 03:13:59;;;;;;;6.00;2.87;;;7.50;99.90;;;;;;5157349;28;20040;-68
2023/10/30 03:16:30;;;;;;;2.78;2.50;;;7.40;99.90;;;;;;5172345;28;20605;-70
2023/10/30 03:19:04;;;;;;;2.30;2.10;;;7.50;99.90;;;;;;5176939;28;20029;-70
2023/10/30 03:21:35;;;;;;;3.40;2.93;;;7.50;99.90;;;;;;5177926;28;20172;-72
2023/10/30 03:24:07;;;;;;;2.47;2.28;;;7.50;99.90;;;;;;5175917;28;20752;-70
2023/10/30 03:26:38;;;;;;;3.20;2.50;;;7.50;99.90;;;;;;5158508;28;20078;-68
2023/10/30 03:29:09;;;;;;;2.85;2.65;;;7.60;99.90;;;;;;5154776;28;20296;-68
2023/10/30 03:31:43;;;;;;;4.85;2.80;;;7.60;99.90;;;;;;5154243;28;20234;-68
2023/10/30 03:34:18;;;;;;;6.68;2.90;;;7.60;99.90;;;;;;5138778;28;20120;-65
2023/10/30 03:37:01;;;;;;;3.97;2.97;;;7.70;99.90;;;;;;5156294;28;20056;-70
2023/10/30 03:39:32;;;;;;;4.13;2.78;;;7.80;99.90;;;;;;5171780;28;20248;-67
2023/10/30 03:42:08;;;;;;;6.68;3.55;;;7.90;99.90;;;;;;5161057;28;20030;-68
2023/10/30 03:44:45;;;;;;;3.92;3.33;;;7.90;99.90;;;;;;5158865;28;20038;-70
2023/10/30 03:47:16;;;;;;;4.80;3.90;;;8.00;99.90;;;;;;5156022;28;20041;-66
2023/10/30 03:49:50;;;;;;;9.30;4.70;;;8.10;99.90;;;;;;5158731;28;20042;-65
2023/10/30 03:52:21;;;;;;;9.60;4.75;;;8.20;99.90;;;;;;5161545;28;20042;-69
2023/10/30 03:54:54;;;;;;;4.78;3.83;;;8.20;99.90;;;;;;5167808;28;20250;-68
2023/10/30 03:57:25;;;;;;;6.18;4.25;;;8.20;99.90;;;;;;5175082;28;20282;-66
2023/10/30 03:59:57;;;;;;;7.40;5.30;;;8.20;99.90;;;;;;5180713;28;20302;-66
2023/10/30 04:02:30;;;;;;;11.85;5.15;;;8.20;99.90;;;;;;5178059;28;20370;-67
2023/10/30 04:05:01;;;;;;;7.23;5.37;;;8.30;99.90;;;;;;5163567;28;20128;-70
2023/10/30 04:07:32;;;;;;;8.30;5.28;;;8.40;99.90;;;;;;5181478;28;20051;-67
2023/10/30 04:10:04;;;;;;;9.00;6.43;;;8.40;99.90;;;;;;5175907;28;20464;-68
2023/10/30 04:12:35;;;;;;;12.68;6.40;;;8.40;99.90;;;;;;5161457;28;20139;-67
2023/10/30 04:15:07;;;;;;;9.80;7.07;;;8.40;99.90;;;;;;5156330;28;20223;-70
2023/10/30 04:17:39;;;;;;;9.27;6.60;;;8.50;99.90;;;;;;5161241;28;20033;-72
2023/10/30 04:20:14;;;;;;;9.23;6.47;;;8.60;99.90;;;;;;5159413;28;20026;-72
2023/10/30 04:22:49;;;;;;;;;;;8.60;99.90;;;;;;5162288;28;20290;-70
2023/10/30 04:25:20;;;;;;;12.55;7.00;;;8.60;99.90;;;;;;5160807;28;19910;-69
2023/10/30 04:27:53;;;;;;;16.95;7.53;;;8.60;99.90;;;;;;5170306;28;20018;-67
2023/10/30 04:30:27;;;;;;;12.37;7.50;;;8.70;99.90;;;;;;5177713;28;20376;-66
2023/10/30 04:33:01;;;;;;;15.75;8.65;;;8.80;99.90;;;;;;5180759;28;20286;-70
2023/10/30 04:35:34;;;;;;;14.48;8.57;;;9.00;99.90;;;;;;5162675;28;20104;-70
2023/10/30 04:38:05;;;;;;;16.40;9.73;;;9.10;99.90;;;;;;5178936;28;20033;-70
2023/10/30 04:40:36;;;;;;;13.60;9.35;;;9.20;99.90;;;;;;5181136;28;20198;-67
2023/10/30 04:43:10;;;;;;;16.83;10.32;;;9.20;99.90;;;;;;5179784;28;20416;-73
2023/10/30 04:45:43;;;;;;;21.10;11.90;;;9.10;99.90;;;;;;5191983;28;20090;-69
2023/10/30 04:48:14;;;;;;;13.27;9.68;;;9.20;99.90;;;;;;5180230;28;20242;-69
2023/10/30 04:50:46;;;;;;;13.07;7.85;;;9.20;99.90;;;;;;5180524;28;20243;-71
2023/10/30 04:53:19;;;;;;;11.38;6.93;;;9.10;99.90;;;;;;5181390;28;20032;-68
2023/10/30 04:55:55;;;;;;;12.68;7.57;;;9.00;99.90;;;;;;5180182;28;20226;-68
2023/10/30 04:58:28;;;;;;;12.27;7.32;;;8.90;99.90;;;;;;5179217;28;20053;-69
2023/10/30 05:01:03;;;;;;;13.68;7.60;;;8.90;99.90;;;;;;5167771;28;20033;-67
2023/10/30 05:03:40;;;;;;;8.98;6.13;;;8.80;99.90;;;;;;5174991;28;20337;-70
2023/10/30 05:06:11;;;;;;;12.13;6.35;;;8.70;99.90;;;;;;5161871;28;20206;-70
2023/10/30 05:08:42;;;;;;;9.35;6.35;;;8.70;99.90;;;;;;5162543;28;20030;-69
2023/10/30 05:11:13;;;;;;;11.05;6.00;;;8.60;99.90;;;;;;5171518;28;20036;-70
2023/10/30 05:13:44;;;;;;;12.07;5.85;;;8.50;99.90;;;;;;5167811;28;20026;-66
2023/10/30 05:16:16;;;;;;;8.57;6.10;;;8.40;99.90;;;;;;5178407;28;20214;-68
2023/10/30 05:18:49;;;;;;;7.60;4.93;;;8.40;99.90;;;;;;5180321;28;20044;-70
2023/10/30 05:21:21;;;;;;;9.75;6.28;;;8.40;99.90;;;;;;5183811;28;20221;-69
2023/10/30 05:23:55;;;;;;;6.47;5.40;;;8.30;99.90;;;;;;5180601;28;20454;-69
2023/10/30 05:26:26;;;;;;;10.38;6.30;;;8.40;99.90;;;;;;5182269;28;20032;-72
2023/10/30 05:28:57;;;;;;;8.02;5.93;;;8.40;99.90;;;;;;5176175;28;20030;-71
2023/10/30 05:31:28;;;;;;;12.45;6.35;;;8.40;99.90;;;;;;5167236;28;20030;-70
2023/10/30 05:34:00;;;;;;;7.68;5.38;;;8.40;99.90;;;;;;5182094;28;20172;-69
2023/10/30 05:36:33;;;;;;;7.55;5.38;;;8.40;99.90;;;;;;5181323;28;20030;-70
2023/10/30 05:39:05;;;;;;;7.80;5.80;;;8.40;99.90;;;;;;5180564;28;20026;-68
2023/10/30 05:41:39;;;;;;;8.52;4.82;;;8.30;99.90;;;;;;5183011;28;20033;-69
2023/10/30 05:44:10;;;;;;;12.38;5.40;;;8.30;99.90;;;;;;5181122;28;20351;-71
2023/10/30 05:46:44;;;;;;;8.95;4.47;;;8.30;99.90;;;;;;5180748;28;20022;-69
2023/10/30 05:49:15;;;;;;;6.13;4.75;;;8.20;99.90;;;;;;5162755;28;20048;-70
2023/10/30 05:51:46;;;;;;;9.35;4.68;;;8.20;99.90;;;;;;5184457;28;20015;-68
2023/10/30 05:54:18;;;;;;;9.43;4.72;;;8.10;99.90;;;;;;5180097;28;20336;-70
2023/10/30 05:56:49;;;;;;;6.38;4.68;;;8.10;99.90;;;;;;5180476;28;20310;-69
2023/10/30 05:59:27;;;;;;;6.65;4.68;;;8.10;99.90;;;;;;5183338;28;20263;-70
2023/10/30 06:01:58;;;;;;;8.40;4.82;;;8.20;99.90;;;;;;5179243;28;20275;-69
2023/10/30 06:04:32;;;;;;;8.20;4.47;;;8.20;99.90;;;;;;5179275;28;20029;-67
2023/10/30 06:07:03;;;;;;;6.25;4.28;;;8.10;99.90;;;;;;5179752;28;20405;-68
2023/10/30 06:09:35;;;;;;;8.43;5.10;;;8.10;99.90;;;;;;5181009;28;20026;-69
2023/10/30 06:12:06;;;;;;;7.03;4.97;;;8.10;99.90;;;;;;5183967;28;20028;-71
2023/10/30 06:14:40;;;;;;;7.35;4.70;;;8.10;99.90;;;;;;5179275;28;20036;-68
2023/10/30 06:17:12;;;;;;;8.05;5.22;;;8.20;99.90;;;;;;5160818;28;20291;-69
2023/10/30 06:19:43;;;;;;;7.20;5.35;;;8.20;99.90;;;;;;5180428;28;20033;-66
2023/10/30 06:22:14;;;;;;;11.35;5.85;;;8.20;99.90;;;;;;5165141;28;20135;-68
2023/10/30 06:24:46;;;;;;;8.50;5.90;;;8.20;99.90;;;;;;5182688;28;20352;-72
2023/10/30 06:27:17;;;;;;;7.65;5.50;;;8.30;99.90;;;;;;5165836;28;20225;-72
2023/10/30 06:29:48;;;;;;;8.00;5.55;;;8.40;99.90;;;;;;5179302;28;20235;-68
2023/10/30 06:32:22;;;;;;;10.88;5.75;;;8.40;99.90;;;;;;5178521;28;20333;-71
2023/10/30 06:34:55;;;;;;;8.23;5.90;;;8.50;99.90;;;;;;5162526;28;20203;-69
2023/10/30 06:37:26;;;;;;;10.90;5.63;;;8.60;99.90;;;;;;5180814;28;20052;-67
2023/10/30 06:40:01;;;;;;;9.25;6.15;;;8.60;99.90;;;;;;5179101;28;20036;-67
2023/10/30 06:42:32;;;;;;;9.20;6.78;;;8.80;99.90;;;;;;5183336;28;20355;-69
2023/10/30 06:45:03;;;;;;;9.98;6.07;;;8.90;99.90;;;;;;5180158;28;20026;-65
2023/10/30 06:47:35;;;;;;;8.10;6.57;;;9.00;99.90;;;;;;5180967;28;20218;-67
2023/10/30 06:50:07;;;;;;;7.72;5.30;;;9.00;99.90;;;;;;5180393;28;20342;-66
2023/10/30 06:52:41;;;;;;;9.43;6.20;;;8.90;99.90;;;;;;5161217;28;20306;-67
2023/10/30 06:55:14;;;;;;;6.53;4.30;;;8.90;99.90;;;;;;5160386;28;20044;-67
2023/10/30 06:57:45;;;;;;;5.90;4.65;;;9.00;99.90;;;;;;5162230;28;20290;-67
2023/10/30 07:00:18;;;;;;;5.38;4.68;;;9.00;99.90;;;;;;5175410;28;20302;-67
2023/10/30 07:02:50;;;;;;;6.40;4.90;;;9.00;99.90;;;;;;5162030;28;20044;-67
2023/10/30 07:05:23;;;;;;;6.15;4.32;;;9.10;99.90;;;;;;5180452;28;20048;-69
2023/10/30 07:07:54;;;;;;;5.60;4.40;;;9.10;99.90;;;;;;5176720;28;20221;-66
2023/10/30 07:10:28;;;;;;;5.45;4.38;;;9.10;99.90;;;;;;5178159;28;20036;-66
2023/10/30 07:13:02;;;;;;;8.10;4.43;;;9.00;99.90;;;;;;5185726;28;20052;-66
2023/10/30 07:15:35;;;;;;;6.30;4.38;;;9.00;99.90;;;;;;5157383;28;20294;-67
2023/10/30 07:18:11;;;;;;;7.28;4.05;;;9.10;99.90;;;;;;5180409;28;20030;-67
2023/10/30 07:20:43;;;;;;;7.32;4.63;;;9.20;99.90;;;;;;5177676;28;20036;-69
2023/10/30 07:23:17;;;;;;;6.20;4.00;;;9.30;99.90;;;;;;5194072;28;20306;-69
2023/10/30 07:25:48;;;;;;;5.05;4.10;;;9.40;99.90;;;;;;5181997;28;20026;-67
2023/10/30 07:28:20;;;;;;;6.53;4.60;;;9.60;99.90;;;;;;5179581;28;20045;-66
2023/10/30 07:30:56;;;;;;;6.00;4.82;;;9.40;99.90;;;;;;5177221;28;20034;-66
2023/10/30 07:33:30;;;;;;;8.70;4.90;;;9.50;99.90;;;;;;5197499;28;20051;-66
2023/10/30 07:36:01;;;;;;;5.05;4.55;;;9.50;99.90;;;;;;5199917;28;20329;-66
2023/10/30 07:38:36;;;;;;;5.78;4.20;;;9.60;99.90;;;;;;5215391;28;20036;-67
2023/10/30 07:41:10;;;;;;;7.82;5.40;;;9.80;99.90;;;;;;5197190;28;20022;-67
2023/10/30 07:43:44;;;;;;;6.72;4.68;;;9.80;99.90;;;;;;5159171;28;20496;-67
2023/10/30 07:46:15;;;;;;;7.10;5.05;;;9.70;99.90;;;;;;5154743;28;20030;-66
2023/10/30 07:48:48;;;;;;;11.07;5.20;;;9.60;99.90;;;;;;5158876;28;20295;-65
2023/10/30 07:51:20;;;;;;;6.25;4.72;;;9.70;99.90;;;;;;5166025;28;20256;-67
2023/10/30 07:53:53;;;;;;;10.27;5.80;;;9.80;99.90;;;;;;5183547;28;20318;-67
2023/10/30 07:56:28;;;;;;;10.18;6.57;;;9.90;99.90;;;;;;5176983;28;20037;-68
2023/10/30 07:59:04;;;;;;;7.25;6.03;;;10.00;99.90;;;;;;5177284;28;20337;-66
2023/10/30 08:01:38;;;;;;;8.00;5.50;;;10.00;99.90;;;;;;5144854;28;20064;-67
2023/10/30 08:04:10;;;;;;;;;;;10.10;99.90;;;;;;5197824;28;20313;-65
2023/10/30 08:06:41;;;;;;;10.38;5.70;;;10.00;99.90;;;;;;5200445;28;19901;-67
2023/10/30 08:09:12;;;;;;;10.25;6.43;;;10.10;99.90;;;;;;5198458;28;20225;-67
2023/10/30 08:11:43;;;;;;;9.57;5.40;;;10.20;99.90;;;;;;5195181;28;20021;-66
2023/10/30 08:14:15;;;;;;;7.90;5.60;;;10.40;99.90;;;;;;5192572;28;20518;-67
2023/10/30 08:16:48;;;;;;;7.15;5.47;;;10.70;99.90;;;;;;5175516;28;20026;-67
2023/10/30 08:19:20;;;;;;;8.32;5.70;;;10.90;99.90;;;;;;5177340;28;20314;-65
2023/10/30 08:21:51;;;;;;;10.68;7.05;;;11.00;99.90;;;;;;5189480;28;20317;-65
2023/10/30 08:24:24;;;;;;;11.00;6.18;;;11.00;99.90;;;;;;5194929;28;20032;-65
2023/10/30 08:26:55;;;;;;;9.20;5.45;;;11.10;99.90;;;;;;5181894;28;20037;-67
2023/10/30 08:29:26;;;;;;;8.77;5.47;;;11.20;99.90;;;;;;5185130;28;20018;-65
2023/10/30 08:31:58;;;;;;;7.35;5.35;;;11.40;99.90;;;;;;5188119;28;20213;-69
2023/10/30 08:34:35;;;;;;;10.30;5.40;;;11.50;99.90;;;;;;5203819;28;20407;-67
2023/10/30 08:37:06;;;;;;;13.07;5.75;;;11.60;99.90;;;;;;5203765;28;20193;-66
2023/10/30 08:39:38;;;;;;;10.00;5.10;;;11.70;99.90;;;;;;5203236;28;20318;-66
2023/10/30 08:42:11;;;;;;;9.30;6.03;;;11.60;99.90;;;;;;5200035;28;20205;-67
2023/10/30 08:44:42;;;;;;;10.20;6.45;;;11.70;99.90;;;;;;5185064;28;20063;-65
2023/10/30 08:47:16;;;;;;;8.80;6.10;;;11.70;99.90;;;;;;5199987;28;20063;-66
2023/10/30 08:49:56;;;;;;;9.98;6.15;;;11.60;99.90;;;;;;5203180;28;20032;-67
2023/10/30 08:52:27;;;;;;;8.18;5.65;;;11.60;99.90;;;;;;5199913;28;20025;-66
2023/10/30 08:54:58;;;;;;;10.35;6.47;;;11.70;99.90;;;;;;5202737;28;20021;-67
2023/10/30 08:57:32;;;;;;;9.93;6.18;;;11.80;99.90;;;;;;5148580;28;20046;-66
2023/10/30 09:00:08;;;;;;;8.45;6.25;;;11.90;99.90;;;;;;5175801;28;20378;-66
2023/10/30 09:02:39;;;;;;;8.75;5.70;;;12.20;99.90;;;;;;5193337;28;20202;-66
2023/10/30 09:05:10;;;;;;;9.32;5.50;;;12.50;16.70;;;;;;5185186;28;20022;-66
2023/10/30 09:07:43;;;;;;;7.47;5.53;;;12.60;1.00;;;;;;5202700;28;20372;-65
2023/10/30 09:10:19;;;;;;;7.53;5.22;;;12.90;1.00;;;;;;5197982;28;20026;-65
2023/10/30 09:12:50;;;;;;;8.00;5.25;;;13.00;1.00;;;;;;5197343;28;20369;-66
2023/10/30 09:15:23;;;;;;;7.22;5.20;;;13.00;1.00;;;;;;5184338;28;20468;-65
2023/10/30 09:17:59;;;;;;;8.43;6.03;;;13.10;1.00;;;;;;5182392;28;20321;-69
2023/10/30 09:20:30;;;;;;;7.60;5.90;;;13.10;1.00;;;;;;5163536;28;20234;-66
2023/10/30 09:23:01;;;;;;;12.20;5.80;;;13.10;1.00;;;;;;5194169;28;20028;-65
2023/10/30 09:25:35;;;;;;;8.52;5.85;;;13.10;1.00;;;;;;5217072;28;20029;-65
2023/10/30 09:28:06;;;;;;;7.43;5.25;;;13.10;1.00;;;;;;5193287;28;20255;-65
2023/10/30 09:30:40;;;;;;;6.15;4.80;;;13.20;1.00;;;;;;5177437;28;20292;-66
2023/10/30 09:33:12;;;;;;;6.35;5.30;;;13.40;1.00;;;;;;5196598;28;20435;-67
2023/10/30 09:35:43;;;;;;;6.43;5.35;;;13.50;1.00;;;;;;5201918;28;20039;-66
2023/10/30 09:38:17;;;;;;;7.45;5.32;;;13.60;1.00;;;;;;5202556;28;20047;-68
2023/10/30 09:41:01;;;;;;;6.93;5.20;;;13.80;1.00;;;;;;5217313;28;20051;-66
2023/10/30 09:43:37;;;;;;;9.57;6.35;;;14.10;1.00;;;;;;5195444;28;20029;-66
2023/10/30 09:46:12;;;;;;;7.47;5.38;;;14.50;99.90;;;;;;5181950;28;20214;-65
2023/10/30 09:48:48;;;;;;;7.95;5.43;;;14.40;99.90;;;;;;5183446;28;20039;-67
2023/10/30 09:51:25;;;;;;;7.10;5.28;;;14.90;99.90;;;;;;5180514;28;20033;-67
2023/10/30 09:54:03;;;;;;;7.25;5.65;;;15.30;1.00;;;;;;5173623;28;20052;-66
2023/10/30 09:56:37;;;;;;;6.68;4.55;;;16.00;1.00;;;;;;5181067;28;20030;-65
2023/10/30 09:59:10;;;;;;;6.57;4.82;;;16.80;1.00;;;;;;5180968;28;20344;-67
2023/10/30 10:01:42;;;;;;;10.60;4.95;;;17.70;99.90;;;;;;5204864;28;20035;-65
2023/10/30 10:04:15;;;;;;;5.32;4.70;;;18.50;99.90;;;;;;5200572;28;20320;-67
2023/10/30 10:06:52;;;;;;;5.57;4.75;;;18.70;99.90;;;;;;5199997;28;20037;-66
2023/10/30 10:09:25;;;;;;;6.43;5.65;;;18.30;41.50;;;;;;5200001;28;20033;-67
2023/10/30 10:11:56;;;;;;;6.22;4.70;;;18.60;99.90;;;;;;5196799;28;20036;-65
2023/10/30 10:14:33;;;;;;;6.07;5.28;;;18.80;30.60;;;;;;5201434;28;20024;-68
2023/10/30 10:17:08;;;;;;;9.88;4.90;;;19.20;1.00;;;;;;5190654;28;20038;-66
2023/10/30 10:19:48;;;;;;;8.57;5.95;;;20.00;99.90;;;;;;5187969;28;20021;-66
2023/10/30 10:22:30;;;;;;;8.88;5.25;;;20.30;1.00;;;;;;5165358;28;20030;-65
2023/10/30 10:25:08;;;;;;;8.73;5.50;;;21.60;1.00;;;;;;5160679;28;20257;-65
2023/10/30 10:27:42;;;;;;;9.80;5.80;;;21.80;1.00;;;;;;5164553;28;20294;-65
2023/10/30 10:30:15;;;;;;;9.02;5.57;;;21.70;99.90;;;;;;5180363;28;20051;-65
2023/10/30 10:32:47;;;;;;;6.45;5.00;;;22.10;99.90;;;;;;5169636;28;20026;-65
2023/10/30 10:35:23;;;;;;;7.75;5.68;;;22.40;99.90;;;;;;5166656;28;20084;-65
2023/10/30 10:38:08;;;;;;;9.45;5.75;;;22.60;99.90;;;;;;5201164;28;20044;-65
2023/10/30 10:40:44;;;;;;;11.82;5.97;;;22.70;99.90;;;;;;5200824;28;20040;-65
2023/10/30 10:43:18;;;;;;;6.70;5.13;;;22.60;99.90;;;;;;5197921;28;20387;-65
2023/10/30 10:45:52;;;;;;;8.90;6.03;;;22.70;99.90;;;;;;5197802;28;20286;-65
2023/10/30 10:48:25;;;;;;;5.65;5.00;;;22.60;1.00;;;;;;5198893;28;20221;-65
2023/10/30 10:51:03;;;;;;;8.07;6.43;;;22.20;99.90;;;;;;5199039;28;20301;-65
2023/10/30 10:53:37;;;;;;;8.57;5.65;;;22.20;99.90;;;;;;5192466;28;20037;-65
2023/10/30 10:56:09;;;;;;;8.77;6.00;;;22.20;99.90;;;;;;5200143;28;20055;-65
2023/10/30 10:58:51;;;;;;;9.40;6.78;;;21.80;99.90;;;;;;5169272;28;20034;-66
2023/10/30 11:01:25;;;;;;;7.85;5.40;;;21.60;99.90;;;;;;5178891;28;20196;-65
2023/10/30 11:04:01;;;;;;;14.55;6.22;;;21.30;99.90;;;;;;5179407;28;20026;-65
2023/10/30 11:06:41;;;;;;;8.23;5.63;;;21.40;99.90;;;;;;5158535;28;20026;-67
2023/10/30 11:09:46;;;;;;;11.68;6.40;;;21.00;99.90;;;;;;5160127;28;20015;-65
2023/10/30 11:12:40;;;;;;;10.07;6.30;;;20.90;90.50;;;;;;5082851;28;20415;-65
2023/10/30 11:15:34;;;;;;;9.67;6.63;;;21.30;99.90;;;;;;5086603;28;20031;-65
2023/10/30 11:18:15;;;;;;;8.20;6.57;;;22.40;99.90;;;;;;5102931;29;20039;-65
2023/10/30 11:20:52;;;;;;;10.30;6.20;;;22.50;99.90;;;;;;5084819;29;20401;-65
2023/10/30 11:23:45;;;;;;;8.07;5.63;;;23.50;1.00;;;;;;5087515;28;20174;-65
2023/10/30 11:26:37;;;;;;;8.43;5.95;;;24.10;1.00;;;;;;5096953;29;20282;-65
2023/10/30 11:29:16;;;;;;;12.50;6.00;;;24.90;1.00;;;;;;5112222;29;20121;-67
2023/10/30 11:32:00;;;;;;;9.65;5.60;;;25.00;1.00;;;;;;5083811;28;20267;-68
2023/10/30 11:34:43;;;;;;;7.45;5.00;;;25.20;99.90;;;;;;5099631;29;20034;-65
2023/10/30 11:37:22;;;;;;;12.30;6.72;;;24.10;99.90;;;;;;5101238;29;20030;-65
2023/10/30 11:39:54;;;;;;;8.07;5.63;;;23.20;99.90;;;;;;5083358;29;20257;-67
2023/10/30 11:42:28;;;;;;;9.70;6.05;;;22.60;99.90;;;;;;5087125;28;20043;-65
2023/10/30 11:45:18;;;;;;;9.40;5.32;;;22.60;99.90;;;;;;5114319;28;20034;-65
2023/10/30 11:47:57;;;;;;;6.90;5.10;;;22.40;99.90;;;;;;5074743;28;20026;-65
2023/10/30 11:50:33;;;;;;;9.38;5.85;;;22.00;42.60;;;;;;5141174;28;20117;-64
2023/10/30 11:53:10;;;;;;;8.13;5.97;;;21.10;79.50;;;;;;5177715;28;20040;-65
2023/10/30 11:55:42;;;;;;;11.48;5.85;;;20.80;90.90;;;;;;5179848;28;20014;-64
2023/10/30 11:58:13;;;;;;;8.55;5.75;;;20.60;1.00;;;;;;5164825;28;20229;-65
2023/10/30 12:00:48;;;;;;;7.97;5.57;;;20.90;1.00;;;;;;5158946;28;20037;-65
2023/10/30 12:03:21;;;;;;;6.18;5.38;;;21.30;1.00;;;;;;5186129;28;20038;-65
2023/10/30 12:05:53;;;;;;;7.00;5.23;;;21.40;1.00;;;;;;5184605;28;20036;-65
2023/10/30 12:08:27;;;;;;;8.52;6.20;;;21.20;1.00;;;;;;5167591;28;20029;-65
2023/10/30 12:11:03;;;;;;;7.82;5.72;;;20.60;1.00;;;;;;5166574;28;20323;-64
2023/10/30 12:13:38;;;;;;;7.10;5.30;;;20.10;1.00;;;;;;5186096;28;20162;-65
2023/10/30 12:16:11;;;;;;;6.53;5.50;;;20.70;1.00;;;;;;5195802;28;20014;-65
2023/10/30 12:18:42;;;;;;;10.50;5.63;;;21.20;1.00;;;;;;5167872;28;20229;-65
2023/10/30 12:21:15;;;;;;;8.38;5.38;;;21.80;88.50;;;;;;5164789;28;20247;-65
2023/10/30 12:23:51;;;;;;;5.57;4.68;;;22.30;99.90;;;;;;5175602;28;20233;-65
2023/10/30 12:26:25;;;;;;;8.88;4.38;;;22.30;1.00;;;;;;5204056;28;20029;-66
2023/10/30 12:29:02;;;;;;;5.93;4.88;;;23.20;99.90;;;;;;5184399;28;20030;-65
2023/10/30 12:31:37;;;;;;;7.70;4.97;;;23.50;1.00;;;;;;5155093;28;20017;-65
2023/10/30 12:34:14;;;;;;;10.88;5.70;;;23.70;99.90;;;;;;5165912;28;20033;-65
2023/10/30 12:36:45;;;;;;;6.80;5.22;;;23.70;99.90;;;;;;5183169;28;20124;-65
2023/10/30 12:39:20;;;;;;;6.45;4.45;;;23.00;99.90;;;;;;5181470;28;20310;-65
2023/10/30 12:41:57;;;;;;;7.55;4.93;;;22.50;99.90;;;;;;5167633;28;20026;-65
2023/10/30 12:44:28;;;;;;;5.32;4.57;;;22.50;99.90;;;;;;5180951;28;20041;-65
2023/10/30 12:47:04;;;;;;;6.65;4.78;;;22.70;99.90;;;;;;5161681;28;20266;-65
2023/10/30 12:49:35;;;;;;;8.13;4.85;;;22.40;99.90;;;;;;5164645;28;20033;-64
2023/10/30 12:52:06;;;;;;;5.82;4.40;;;22.20;99.90;;;;;;5186678;28;20017;-65
2023/10/30 12:54:38;;;;;;;7.63;5.15;;;21.90;99.90;;;;;;5182776;28;20070;-64
2023/10/30 12:57:11;;;;;;;6.43;5.05;;;21.50;99.90;;;;;;5180374;28;20211;-64
2023/10/30 12:59:43;;;;;;;5.97;5.20;;;21.10;99.90;;;;;;5160556;28;20483;-64
2023/10/30 13:02:20;;;;;;;7.43;5.30;;;21.10;99.90;;;;;;5168894;28;20215;-65
2023/10/30 13:04:53;;;;;;;5.72;4.72;;;21.50;99.90;;;;;;5181701;28;20030;-65
2023/10/30 13:07:25;;;;;;;7.63;5.27;;;21.60;99.90;;;;;;5182846;28;20048;-66
2023/10/30 13:10:01;;;;;;;8.80;5.72;;;21.10;99.90;;;;;;5168134;28;20274;-65
2023/10/30 13:12:32;;;;;;;7.97;5.97;;;20.70;1.00;;;;;;5171166;28;20033;-65
2023/10/30 13:15:04;;;;;;;7.97;5.45;;;20.30;1.00;;;;;;5163297;28;20295;-65
2023/10/30 13:17:35;;;;;;;9.02;5.90;;;19.80;1.00;;;;;;5179804;28;20033;-65
2023/10/30 13:20:10;;;;;;;7.30;5.10;;;19.30;1.00;;;;;;5163755;28;20033;-65
2023/10/30 13:22:41;;;;;;;5.63;4.72;;;19.30;1.00;;;;;;5147103;28;20396;-65
2023/10/30 13:25:12;;;;;;;9.73;5.45;;;19.20;1.00;;;;;;5161862;28;20222;-65
2023/10/30 13:27:46;;;;;;;13.18;6.18;;;18.90;1.00;;;;;;5165910;28;20026;-66
2023/10/30 13:30:17;;;;;;;9.10;6.33;;;18.80;1.00;;;;;;5161322;28;20030;-65